Time;durP1;ratioP1;P1;durP2;ratioP2;P2;SDS_P1;SDS_P2;PMS_P1;PMS_P2;Temp;Humidity;BMP_temperature;BMP_pressure;BME280_temperature;BME280_humidity;BME280_pressure;Samples;Min_cycle;Max_cycle;Signal;HPM_P1;HPM_P2
2021/08/11 00:02:40;;;;;;;6.35;3.83;;;19.80;69.10;;;;;;5045299;28;20033;-68
2021/08/11 00:05:25;;;;;;;6.70;3.40;;;19.70;69.10;;;;;;5045139;28;20232;-68
2021/08/11 00:08:09;;;;;;;5.30;3.30;;;19.70;69.40;;;;;;5044391;28;20037;-68
2021/08/11 00:10:54;;;;;;;8.32;3.85;;;19.70;69.40;;;;;;5044357;28;20410;-68
2021/08/11 00:13:38;;;;;;;6.03;4.30;;;19.70;69.40;;;;;;5044320;28;20033;-68
2021/08/11 00:16:22;;;;;;;6.53;3.35;;;19.60;69.50;;;;;;5044287;28;20033;-68
2021/08/11 00:19:07;;;;;;;5.53;3.42;;;19.60;69.50;;;;;;5044130;28;20084;-69
2021/08/11 00:21:51;;;;;;;7.53;3.38;;;19.60;69.50;;;;;;5044300;28;20032;-68
2021/08/11 00:24:35;;;;;;;5.75;3.88;;;19.60;69.50;;;;;;5043883;28;20256;-68
2021/08/11 00:27:19;;;;;;;4.65;3.45;;;19.50;69.60;;;;;;5044121;28;20024;-67
2021/08/11 00:30:04;;;;;;;7.00;3.72;;;19.60;69.60;;;;;;5044510;28;20020;-69
2021/08/11 00:32:48;;;;;;;6.80;3.33;;;19.60;69.70;;;;;;5044161;28;20382;-69
2021/08/11 00:35:33;;;;;;;4.50;3.15;;;19.60;70.00;;;;;;5044528;28;20033;-68
2021/08/11 00:38:17;;;;;;;4.93;3.40;;;19.70;69.90;;;;;;5043852;28;20112;-69
2021/08/11 00:41:01;;;;;;;7.72;3.70;;;19.60;69.90;;;;;;5043933;28;20028;-68
2021/08/11 00:43:45;;;;;;;6.32;3.80;;;19.60;70.00;;;;;;5043852;28;20248;-68
2021/08/11 00:46:30;;;;;;;11.07;4.38;;;19.50;70.00;;;;;;5043794;28;20080;-68
2021/08/11 00:49:14;;;;;;;7.53;3.80;;;19.40;70.20;;;;;;5043191;28;20086;-68
2021/08/11 00:51:59;;;;;;;7.07;3.70;;;19.40;70.30;;;;;;5042893;28;20049;-68
2021/08/11 00:54:43;;;;;;;7.32;3.92;;;19.40;70.50;;;;;;5043773;28;20059;-68
2021/08/11 00:57:27;;;;;;;7.38;3.60;;;19.40;70.40;;;;;;5042514;28;20037;-67
2021/08/11 01:00:13;;;;;;;12.23;3.63;;;19.40;70.70;;;;;;5043151;28;20029;-68
2021/08/11 01:02:57;;;;;;;9.13;3.65;;;19.30;70.90;;;;;;5042788;28;20353;-68
2021/08/11 01:05:41;;;;;;;5.93;3.92;;;19.40;70.90;;;;;;5043585;28;20068;-68
2021/08/11 01:08:26;;;;;;;7.43;3.88;;;19.30;71.10;;;;;;5043993;28;20032;-69
2021/08/11 01:11:10;;;;;;;7.13;3.72;;;19.40;70.80;;;;;;5043912;28;20036;-69
2021/08/11 01:13:55;;;;;;;8.00;3.60;;;19.30;71.00;;;;;;5029039;28;20070;-68
2021/08/11 01:16:39;;;;;;;5.18;3.60;;;19.40;71.30;;;;;;5043633;28;20044;-69
2021/08/11 01:19:23;;;;;;;7.95;3.80;;;19.30;71.50;;;;;;5043383;28;20040;-69
2021/08/11 01:22:15;;;;;;;5.60;3.50;;;19.40;71.40;;;;;;5043409;28;20040;-68
2021/08/11 01:25:30;;;;;;;9.27;3.78;;;19.40;71.70;;;;;;5029417;28;20052;-68
2021/08/11 01:28:40;;;;;;;7.57;3.78;;;19.40;72.00;;;;;;5043586;28;20064;-68
2021/08/11 01:31:30;;;;;;;6.35;3.40;;;19.30;72.10;;;;;;5042606;28;20058;-68
2021/08/11 01:34:27;;;;;;;7.70;4.00;;;19.40;71.50;;;;;;5028900;28;20075;-69
2021/08/11 01:37:17;;;;;;;7.35;4.32;;;19.30;71.70;;;;;;5029076;28;20036;-68
2021/08/11 01:40:01;;;;;;;6.82;3.60;;;19.30;71.80;;;;;;5042482;28;20151;-68
2021/08/11 01:42:45;;;;;;;8.75;3.70;;;19.40;71.50;;;;;;5043293;28;20397;-68
2021/08/11 01:45:34;;;;;;;8.88;4.00;;;19.30;71.80;;;;;;5043175;28;20097;-68
2021/08/11 01:48:31;;;;;;;7.82;4.05;;;19.30;71.90;;;;;;5043626;28;20036;-69
2021/08/11 01:51:15;;;;;;;10.48;3.70;;;19.30;72.00;;;;;;5029501;28;20076;-68
2021/08/11 01:54:00;;;;;;;6.25;3.60;;;19.30;71.90;;;;;;5043602;28;20056;-69
2021/08/11 01:56:45;;;;;;;8.23;3.95;;;19.30;71.90;;;;;;5043288;28;20274;-68
2021/08/11 01:59:29;;;;;;;9.90;4.00;;;19.40;72.00;;;;;;5043724;28;20093;-68
2021/08/11 02:02:14;;;;;;;7.90;3.80;;;19.30;72.10;;;;;;5042484;28;20028;-68
2021/08/11 02:04:58;;;;;;;5.20;3.70;;;19.30;72.10;;;;;;5042068;28;20024;-68
2021/08/11 02:07:42;;;;;;;10.40;3.90;;;19.30;72.10;;;;;;5043270;28;20348;-69
2021/08/11 02:10:27;;;;;;;9.88;3.90;;;19.30;72.00;;;;;;5046660;28;20078;-69
2021/08/11 02:13:11;;;;;;;8.90;4.00;;;19.30;72.00;;;;;;5046623;28;20064;-68
2021/08/11 02:15:55;;;;;;;5.90;3.53;;;19.30;71.90;;;;;;5046781;28;20044;-68
2021/08/11 02:18:40;;;;;;;7.63;4.30;;;19.30;72.00;;;;;;5045516;28;20367;-68
2021/08/11 02:21:24;;;;;;;4.63;3.60;;;19.20;72.00;;;;;;5046447;28;20090;-68
2021/08/11 02:24:09;;;;;;;7.88;3.95;;;19.10;72.00;;;;;;5046763;28;20224;-69
2021/08/11 02:27:01;;;;;;;9.25;4.25;;;19.20;72.10;;;;;;5045493;28;20040;-69
2021/08/11 02:30:08;;;;;;;6.00;3.80;;;19.20;72.10;;;;;;5031939;28;20039;-68
2021/08/11 02:32:59;;;;;;;10.10;4.25;;;19.10;72.00;;;;;;5046428;28;20374;-69
2021/08/11 02:35:48;;;;;;;14.05;3.78;;;19.10;72.20;;;;;;5045322;28;20037;-68
2021/08/11 02:38:36;;;;;;;8.27;3.72;;;19.10;72.10;;;;;;5045075;28;20047;-68
2021/08/11 02:41:28;;;;;;;7.43;4.20;;;19.10;72.10;;;;;;5045163;28;20044;-68
2021/08/11 02:44:18;;;;;;;6.88;3.53;;;19.10;72.30;;;;;;5046038;28;20032;-69
2021/08/11 02:47:03;;;;;;;7.28;3.42;;;19.00;72.30;;;;;;5045407;28;20040;-68
2021/08/11 02:49:47;;;;;;;5.95;3.50;;;19.00;72.30;;;;;;5045966;28;20409;-69
2021/08/11 02:52:31;;;;;;;5.72;3.63;;;19.00;72.40;;;;;;5045154;28;20032;-68
2021/08/11 02:55:15;;;;;;;7.28;3.78;;;19.00;72.50;;;;;;5045018;28;20079;-68
2021/08/11 02:58:00;;;;;;;6.93;4.00;;;19.00;72.60;;;;;;5044758;28;20033;-68
2021/08/11 03:00:45;;;;;;;6.90;4.30;;;19.00;72.60;;;;;;5044939;28;20028;-68
2021/08/11 03:03:29;;;;;;;5.78;3.45;;;19.00;72.70;;;;;;5044766;28;20347;-68
2021/08/11 03:06:14;;;;;;;6.28;3.60;;;19.00;72.90;;;;;;5046106;28;20040;-69
2021/08/11 03:08:58;;;;;;;5.03;3.65;;;18.90;73.00;;;;;;5045757;28;20040;-69
2021/08/11 03:11:42;;;;;;;10.63;3.80;;;18.90;73.10;;;;;;5044554;28;20269;-69
2021/08/11 03:14:26;;;;;;;6.70;3.50;;;18.90;73.00;;;;;;5045924;28;20036;-69
2021/08/11 03:17:10;;;;;;;7.13;3.92;;;18.90;73.00;;;;;;5030461;28;20404;-69
2021/08/11 03:19:54;;;;;;;9.25;3.85;;;18.90;73.20;;;;;;5044110;28;20048;-69
2021/08/11 03:22:39;;;;;;;5.78;4.00;;;18.90;73.30;;;;;;5030629;28;20033;-69
2021/08/11 03:25:23;;;;;;;7.75;3.67;;;18.90;73.60;;;;;;5045284;28;20064;-68
2021/08/11 03:28:08;;;;;;;6.97;4.25;;;18.90;73.60;;;;;;5045217;28;20028;-68
2021/08/11 03:30:52;;;;;;;8.00;3.60;;;19.00;73.60;;;;;;5045161;28;20032;-68
2021/08/11 03:33:37;;;;;;;6.68;3.80;;;18.90;73.60;;;;;;5045130;28;20028;-69
2021/08/11 03:36:21;;;;;;;8.60;4.20;;;18.90;73.50;;;;;;5045023;28;20048;-67
2021/08/11 03:39:06;;;;;;;9.35;4.15;;;19.00;73.70;;;;;;5045383;28;20068;-69
2021/08/11 03:41:50;;;;;;;5.95;3.80;;;18.90;73.80;;;;;;5045136;28;20036;-69
2021/08/11 03:44:34;;;;;;;10.00;4.60;;;18.90;73.90;;;;;;5045406;28;20067;-69
2021/08/11 03:47:18;;;;;;;6.05;4.00;;;18.90;73.80;;;;;;5045281;28;20032;-69
2021/08/11 03:50:03;;;;;;;9.10;4.05;;;18.90;73.80;;;;;;5045093;28;20040;-69
2021/08/11 03:52:47;;;;;;;7.15;4.18;;;18.90;73.60;;;;;;5044996;28;20073;-69
2021/08/11 03:55:32;;;;;;;6.80;4.10;;;18.90;73.50;;;;;;5044817;28;20213;-68
2021/08/11 03:58:16;;;;;;;6.50;4.20;;;18.90;73.50;;;;;;5044687;28;20056;-68
2021/08/11 04:01:01;;;;;;;5.57;3.83;;;18.90;73.40;;;;;;5044611;28;20090;-69
2021/08/11 04:03:45;;;;;;;5.22;4.03;;;18.90;73.40;;;;;;5045266;28;20028;-68
2021/08/11 04:06:29;;;;;;;8.68;4.13;;;18.90;73.20;;;;;;5044432;28;20375;-68
2021/08/11 04:09:14;;;;;;;8.60;4.20;;;18.80;73.20;;;;;;5044938;28;20060;-69
2021/08/11 04:11:58;;;;;;;8.48;3.78;;;18.80;73.30;;;;;;5044565;28;20103;-68
2021/08/11 04:14:42;;;;;;;5.50;3.95;;;18.80;73.30;;;;;;5044380;28;20124;-68
2021/08/11 04:17:26;;;;;;;6.93;4.15;;;18.80;73.30;;;;;;5043282;28;20318;-68
2021/08/11 04:20:11;;;;;;;7.03;4.20;;;18.80;73.50;;;;;;5044214;28;20037;-69
2021/08/11 04:22:55;;;;;;;9.65;4.00;;;18.80;73.50;;;;;;5044109;28;20033;-69
2021/08/11 04:25:41;;;;;;;7.18;4.78;;;18.70;73.40;;;;;;5044140;28;20366;-69
2021/08/11 04:28:28;;;;;;;7.97;4.10;;;18.80;73.30;;;;;;5044061;28;20051;-69
2021/08/11 04:31:12;;;;;;;7.90;4.10;;;18.70;73.30;;;;;;5042733;28;20032;-68
2021/08/11 04:33:57;;;;;;;6.75;3.88;;;18.70;73.50;;;;;;5043967;28;20089;-69
2021/08/11 04:36:41;;;;;;;6.00;3.85;;;18.70;73.70;;;;;;5044004;28;20066;-68
2021/08/11 04:39:25;;;;;;;4.70;3.58;;;18.70;73.60;;;;;;5043809;28;20028;-67
2021/08/11 04:42:09;;;;;;;5.65;3.78;;;18.70;73.60;;;;;;5044313;28;20104;-69
2021/08/11 04:44:53;;;;;;;5.78;4.00;;;18.70;73.70;;;;;;5043999;28;20037;-69
2021/08/11 04:47:38;;;;;;;5.95;4.10;;;18.70;73.70;;;;;;5044321;28;20208;-69
2021/08/11 04:50:22;;;;;;;7.10;4.20;;;18.70;73.70;;;;;;5043757;28;20025;-68
2021/08/11 04:53:06;;;;;;;6.28;4.03;;;18.70;73.60;;;;;;5044051;28;20064;-69
2021/08/11 04:55:50;;;;;;;7.00;4.25;;;18.70;73.70;;;;;;5044159;28;20093;-69
2021/08/11 04:58:35;;;;;;;10.45;4.10;;;18.80;73.80;;;;;;5043806;28;20382;-69
2021/08/11 05:01:19;;;;;;;7.43;4.28;;;18.80;74.00;;;;;;5044247;28;20059;-68
2021/08/11 05:04:04;;;;;;;7.95;4.40;;;18.80;74.30;;;;;;5043710;28;20029;-69
2021/08/11 05:06:48;;;;;;;7.28;3.90;;;18.80;74.40;;;;;;5043450;28;20079;-69
2021/08/11 05:09:33;;;;;;;9.18;4.43;;;18.70;74.50;;;;;;5043525;28;20031;-68
2021/08/11 05:12:17;;;;;;;8.02;4.22;;;18.80;74.40;;;;;;5043927;28;20059;-69
2021/08/11 05:15:03;;;;;;;9.85;4.40;;;18.80;74.40;;;;;;5043498;28;20040;-69
2021/08/11 05:17:47;;;;;;;6.22;4.13;;;18.80;74.40;;;;;;5042523;28;20087;-69
2021/08/11 05:20:30;;;;;;;10.02;3.97;;;18.80;74.50;;;;;;5043696;28;20029;-69
2021/08/11 05:23:15;;;;;;;9.70;4.00;;;18.90;74.50;;;;;;5042592;28;20032;-68
2021/08/11 05:25:59;;;;;;;6.15;4.20;;;18.90;74.60;;;;;;5043679;28;20029;-68
2021/08/11 05:28:45;;;;;;;10.98;4.13;;;18.90;74.40;;;;;;5043654;28;20320;-69
2021/08/11 05:31:29;;;;;;;6.40;4.00;;;19.00;74.20;;;;;;5043559;28;20032;-69
2021/08/11 05:34:14;;;;;;;5.90;3.97;;;19.00;74.20;;;;;;5043305;28;20043;-69
2021/08/11 05:36:58;;;;;;;9.85;4.30;;;19.10;74.20;;;;;;5043368;28;20347;-69
2021/08/11 05:39:42;;;;;;;6.35;4.20;;;19.10;74.30;;;;;;5043163;28;20080;-69
2021/08/11 05:42:27;;;;;;;6.53;4.20;;;19.20;74.40;;;;;;5043195;28;20036;-68
2021/08/11 05:45:11;;;;;;;6.97;3.90;;;19.20;74.50;;;;;;5047519;28;20024;-69
2021/08/11 05:47:55;;;;;;;10.00;4.15;;;19.20;74.50;;;;;;5047193;28;20037;-69
2021/08/11 05:50:39;;;;;;;8.77;3.85;;;19.30;74.20;;;;;;5047537;28;20035;-69
2021/08/11 05:53:24;;;;;;;9.80;4.20;;;19.30;74.70;;;;;;5047458;28;20032;-69
2021/08/11 05:56:08;;;;;;;8.07;4.15;;;19.40;74.50;;;;;;5046878;28;20048;-69
2021/08/11 05:58:52;;;;;;;7.85;3.97;;;19.40;74.30;;;;;;5046680;28;20071;-69
2021/08/11 06:01:37;;;;;;;10.00;4.32;;;19.50;74.20;;;;;;5046771;28;20036;-69
2021/08/11 06:04:22;;;;;;;5.55;3.80;;;19.50;73.90;;;;;;5046653;28;20060;-69
2021/08/11 06:07:07;;;;;;;8.88;4.03;;;19.60;73.90;;;;;;5046729;28;20035;-69
2021/08/11 06:09:51;;;;;;;7.95;3.72;;;19.70;73.80;;;;;;5045710;28;20079;-68
2021/08/11 06:12:35;;;;;;;7.20;3.60;;;19.70;73.70;;;;;;5046592;28;20055;-68
2021/08/11 06:15:20;;;;;;;8.85;3.67;;;19.80;73.80;;;;;;5046572;28;20296;-68
2021/08/11 06:18:04;;;;;;;6.75;3.67;;;19.80;73.90;;;;;;5046863;28;20039;-69
2021/08/11 06:20:52;;;;;;;5.00;3.58;;;19.90;73.80;;;;;;5046620;28;20037;-69
2021/08/11 06:23:36;;;;;;;4.90;3.55;;;20.00;73.60;;;;;;5046205;28;20049;-69
2021/08/11 06:26:20;;;;;;;7.72;4.00;;;20.10;73.60;;;;;;5046272;28;20031;-69
2021/08/11 06:29:04;;;;;;;6.15;3.60;;;20.10;73.60;;;;;;5046202;28;20407;-69
2021/08/11 06:31:49;;;;;;;6.38;3.97;;;20.20;73.40;;;;;;5046181;28;20048;-69
2021/08/11 06:34:33;;;;;;;8.10;3.97;;;20.30;73.50;;;;;;5046111;28;20303;-69
2021/08/11 06:37:18;;;;;;;6.15;3.70;;;20.30;73.30;;;;;;5046018;28;20087;-69
2021/08/11 06:40:03;;;;;;;7.75;3.70;;;20.40;73.30;;;;;;5046394;28;20145;-69
2021/08/11 06:42:48;;;;;;;7.80;4.28;;;20.40;73.10;;;;;;5046001;28;20036;-69
2021/08/11 06:45:32;;;;;;;7.47;3.55;;;20.50;73.20;;;;;;5045883;28;20037;-68
2021/08/11 06:48:16;;;;;;;6.30;3.47;;;20.60;73.10;;;;;;5046676;28;20339;-69
2021/08/11 06:51:00;;;;;;;6.10;3.47;;;20.70;72.80;;;;;;5044963;28;20071;-69
2021/08/11 06:53:44;;;;;;;9.38;3.38;;;20.70;72.80;;;;;;5045626;28;20071;-69
2021/08/11 06:56:28;;;;;;;5.93;3.30;;;20.80;72.90;;;;;;5046176;28;20029;-69
2021/08/11 06:59:12;;;;;;;8.07;3.78;;;20.80;72.70;;;;;;5046092;28;20033;-69
2021/08/11 07:01:57;;;;;;;6.07;3.30;;;20.90;72.40;;;;;;5045586;28;20036;-69
2021/08/11 07:04:41;;;;;;;7.63;3.30;;;21.00;71.70;;;;;;5045573;28;20270;-69
2021/08/11 07:07:25;;;;;;;3.92;2.80;;;21.10;71.60;;;;;;5045618;28;20388;-69
2021/08/11 07:10:14;;;;;;;7.25;3.22;;;21.20;70.30;;;;;;5045489;28;20064;-69
2021/08/11 07:12:58;;;;;;;5.20;3.42;;;21.30;70.10;;;;;;5045657;28;20032;-69
2021/08/11 07:15:43;;;;;;;4.68;3.13;;;21.30;70.10;;;;;;5045482;28;20024;-69
2021/08/11 07:18:27;;;;;;;7.38;2.75;;;21.30;68.50;;;;;;5045231;28;20213;-69
2021/08/11 07:21:11;;;;;;;5.15;2.63;;;21.40;67.90;;;;;;5045771;28;20344;-69
2021/08/11 07:23:55;;;;;;;5.72;3.03;;;21.50;67.50;;;;;;5045223;28;20057;-70
2021/08/11 07:26:40;;;;;;;6.32;3.22;;;21.50;66.30;;;;;;5045732;28;20221;-69
2021/08/11 07:29:24;;;;;;;4.85;2.67;;;21.70;67.00;;;;;;5045571;28;20040;-69
2021/08/11 07:32:08;;;;;;;4.18;2.80;;;21.80;67.30;;;;;;5045525;28;20033;-69
2021/08/11 07:34:52;;;;;;;6.80;2.80;;;21.90;66.90;;;;;;5045408;28;20028;-69
2021/08/11 07:37:50;;;;;;;7.43;3.08;;;22.00;66.80;;;;;;5044409;28;20036;-69
2021/08/11 07:40:34;;;;;;;5.32;2.70;;;22.30;64.80;;;;;;5044983;28;20259;-69
2021/08/11 07:43:20;;;;;;;5.43;3.00;;;22.60;63.70;;;;;;5044900;28;20048;-69
2021/08/11 07:46:03;;;;;;;6.95;2.90;;;22.80;63.40;;;;;;5043889;28;20437;-69
2021/08/11 07:48:47;;;;;;;4.85;2.67;;;23.10;63.10;;;;;;5044769;28;20048;-70
2021/08/11 07:51:32;;;;;;;5.03;2.63;;;23.20;62.30;;;;;;5044722;28;20087;-69
2021/08/11 07:54:16;;;;;;;4.72;2.70;;;23.30;62.10;;;;;;5045140;28;20338;-70
2021/08/11 07:57:00;;;;;;;4.00;2.25;;;23.40;61.90;;;;;;5044776;28;20072;-70
2021/08/11 07:59:45;;;;;;;5.82;2.50;;;23.40;62.00;;;;;;5044661;28;20032;-70
2021/08/11 08:02:29;;;;;;;3.35;2.20;;;23.50;61.10;;;;;;5045053;28;20028;-70
2021/08/11 08:05:14;;;;;;;3.15;1.98;;;23.60;62.50;;;;;;5044379;28;20044;-70
2021/08/11 08:07:59;;;;;;;2.88;1.80;;;23.70;62.10;;;;;;5044317;28;20032;-70
2021/08/11 08:10:43;;;;;;;3.25;1.88;;;23.80;58.90;;;;;;5044905;28;20037;-70
2021/08/11 08:13:28;;;;;;;5.90;1.80;;;23.80;58.90;;;;;;5044031;28;20036;-70
2021/08/11 08:16:13;;;;;;;4.20;1.50;;;23.90;58.90;;;;;;5044475;28;20040;-70
2021/08/11 08:18:58;;;;;;;6.25;1.60;;;24.00;59.00;;;;;;5044035;28;20071;-70
2021/08/11 08:21:42;;;;;;;2.65;1.60;;;24.20;57.30;;;;;;5043343;28;20032;-70
2021/08/11 08:24:26;;;;;;;3.83;1.48;;;24.20;57.00;;;;;;5043894;28;20095;-69
2021/08/11 08:27:11;;;;;;;3.63;1.40;;;24.20;56.30;;;;;;5044513;28;20060;-70
2021/08/11 08:29:57;;;;;;;3.63;1.80;;;24.30;55.30;;;;;;5044265;28;20225;-70
2021/08/11 08:32:42;;;;;;;3.65;1.75;;;24.30;56.20;;;;;;5044587;28;20127;-70
2021/08/11 08:35:26;;;;;;;4.90;1.95;;;24.40;56.40;;;;;;5043997;28;20221;-70
2021/08/11 08:38:10;;;;;;;3.47;1.95;;;24.50;55.50;;;;;;5043856;28;20140;-70
2021/08/11 08:40:54;;;;;;;3.08;1.85;;;24.40;54.40;;;;;;5043871;28;20068;-70
2021/08/11 08:43:39;;;;;;;3.80;2.05;;;24.60;54.80;;;;;;5042888;28;20072;-70
2021/08/11 08:46:23;;;;;;;6.15;2.20;;;24.70;53.80;;;;;;5042895;28;20090;-70
2021/08/11 08:49:07;;;;;;;3.78;1.98;;;24.80;55.40;;;;;;5043742;28;20089;-70
2021/08/11 08:51:53;;;;;;;3.28;2.00;;;24.90;56.90;;;;;;5043703;28;20371;-70
2021/08/11 08:54:37;;;;;;;3.80;2.25;;;25.00;55.60;;;;;;5043759;28;20091;-70
2021/08/11 08:57:21;;;;;;;5.38;2.13;;;25.00;55.00;;;;;;5042576;28;20124;-69
2021/08/11 09:00:07;;;;;;;6.32;2.55;;;25.20;55.90;;;;;;5044034;28;20367;-70
2021/08/11 09:02:51;;;;;;;3.25;2.05;;;25.30;56.50;;;;;;5043682;28;20151;-70
2021/08/11 09:05:36;;;;;;;7.07;2.53;;;25.30;54.50;;;;;;5043796;28;20028;-70
2021/08/11 09:08:20;;;;;;;3.72;2.42;;;25.30;53.90;;;;;;5043696;28;20029;-70
2021/08/11 09:11:14;;;;;;;4.57;2.38;;;25.40;53.30;;;;;;5043766;28;20063;-70
2021/08/11 09:14:25;;;;;;;4.28;2.30;;;25.40;53.80;;;;;;5043797;28;20040;-70
2021/08/11 09:17:10;;;;;;;4.38;2.47;;;25.50;53.80;;;;;;5044759;28;20059;-70
2021/08/11 09:19:54;;;;;;;5.45;2.30;;;25.60;52.50;;;;;;5047851;28;20036;-70
2021/08/11 09:22:46;;;;;;;5.03;2.38;;;25.70;53.10;;;;;;5047723;28;20076;-70
2021/08/11 09:25:30;;;;;;;5.43;3.10;;;25.80;53.20;;;;;;5047694;28;20060;-70
2021/08/11 09:28:18;;;;;;;11.27;3.33;;;25.80;53.60;;;;;;5047424;28;20228;-70
2021/08/11 09:31:22;;;;;;;4.60;2.88;;;25.80;51.90;;;;;;5047427;28;20025;-70
2021/08/11 09:34:07;;;;;;;4.88;2.70;;;25.80;50.70;;;;;;5046529;28;20068;-70
2021/08/11 09:36:52;;;;;;;7.20;2.97;;;26.00;52.60;;;;;;5047300;28;20286;-70
2021/08/11 09:39:38;;;;;;;4.07;2.60;;;26.10;51.90;;;;;;5032588;28;20037;-70
2021/08/11 09:42:22;;;;;;;4.90;2.92;;;26.10;52.70;;;;;;5047180;28;20213;-68
2021/08/11 09:45:09;;;;;;;5.22;2.70;;;26.20;53.80;;;;;;5046513;28;20033;-69
2021/08/11 09:48:01;;;;;;;3.95;2.70;;;26.30;53.30;;;;;;5047094;28;20343;-69
2021/08/11 09:50:46;;;;;;;5.78;2.83;;;26.30;51.50;;;;;;5047182;28;20060;-69
2021/08/11 09:53:30;;;;;;;3.97;2.60;;;26.40;53.20;;;;;;5046968;28;20220;-69
2021/08/11 09:56:15;;;;;;;4.93;2.88;;;26.50;53.40;;;;;;5046920;28;20264;-69
2021/08/11 09:59:04;;;;;;;5.28;2.60;;;26.50;51.40;;;;;;5046746;28;20056;-69
2021/08/11 10:01:49;;;;;;;4.20;2.45;;;26.60;52.00;;;;;;5046830;28;20028;-69
2021/08/11 10:04:40;;;;;;;6.38;3.17;;;26.60;51.10;;;;;;5046796;28;20108;-70
2021/08/11 10:07:25;;;;;;;5.32;3.20;;;26.70;53.10;;;;;;5046627;28;20033;-69
2021/08/11 10:10:09;;;;;;;4.95;2.67;;;26.70;51.00;;;;;;5031940;28;20032;-69
2021/08/11 10:12:53;;;;;;;4.65;2.72;;;26.80;51.40;;;;;;5046571;28;20205;-69
2021/08/11 10:15:37;;;;;;;4.85;3.10;;;26.80;50.50;;;;;;5046475;28;20052;-68
2021/08/11 10:18:26;;;;;;;4.10;3.00;;;26.80;51.10;;;;;;5046445;28;20032;-69
2021/08/11 10:21:10;;;;;;;8.80;3.25;;;26.80;50.00;;;;;;5046938;28;20028;-69
2021/08/11 10:23:54;;;;;;;4.65;2.88;;;27.00;50.40;;;;;;5046349;28;20056;-69
2021/08/11 10:26:39;;;;;;;5.70;2.65;;;27.10;49.80;;;;;;5046903;28;20040;-69
2021/08/11 10:29:26;;;;;;;4.82;2.60;;;27.20;48.90;;;;;;5045101;28;20035;-69
2021/08/11 10:32:10;;;;;;;5.47;2.67;;;27.30;50.70;;;;;;5046216;28;20041;-69
2021/08/11 10:34:55;;;;;;;5.78;3.00;;;27.30;50.50;;;;;;5046599;28;20092;-69
2021/08/11 10:37:40;;;;;;;7.80;2.63;;;27.40;52.10;;;;;;5031169;28;20056;-70
2021/08/11 10:40:24;;;;;;;5.40;3.13;;;27.40;50.50;;;;;;5046787;28;20028;-69
2021/08/11 10:43:10;;;;;;;5.78;3.10;;;27.40;50.40;;;;;;5046224;28;20036;-69
2021/08/11 10:45:59;;;;;;;5.50;2.83;;;27.30;49.90;;;;;;5031602;28;20020;-69
2021/08/11 10:48:44;;;;;;;3.83;2.88;;;27.40;49.50;;;;;;5031286;28;20093;-69
2021/08/11 10:51:37;;;;;;;4.55;3.08;;;27.40;47.80;;;;;;5031036;28;20089;-69
2021/08/11 10:54:22;;;;;;;4.25;2.88;;;27.50;49.00;;;;;;5045923;28;20063;-69
2021/08/11 10:57:06;;;;;;;4.93;2.70;;;27.70;50.10;;;;;;5046325;28;20056;-69
2021/08/11 10:59:51;;;;;;;6.82;2.70;;;27.80;51.10;;;;;;5044855;28;20109;-69
2021/08/11 11:02:39;;;;;;;4.88;3.03;;;27.80;52.40;;;;;;5046110;28;20036;-69
2021/08/11 11:05:24;;;;;;;4.63;2.50;;;27.80;48.50;;;;;;5045658;28;20029;-70
2021/08/11 11:08:23;;;;;;;5.93;2.90;;;27.90;50.70;;;;;;5045538;28;20083;-69
2021/08/11 11:11:36;;;;;;;5.25;2.78;;;28.00;48.20;;;;;;5045448;28;20270;-70
2021/08/11 11:14:51;;;;;;;6.35;3.03;;;28.10;50.90;;;;;;5045183;28;20056;-69
2021/08/11 11:17:36;;;;;;;4.43;2.80;;;28.10;49.30;;;;;;5042316;28;20036;-69
2021/08/11 11:20:20;;;;;;;4.45;2.60;;;28.10;49.50;;;;;;5030939;28;20076;-69
2021/08/11 11:23:05;;;;;;;5.05;3.08;;;28.20;50.00;;;;;;5045597;28;20057;-68
2021/08/11 11:26:09;;;;;;;4.32;2.83;;;28.10;49.20;;;;;;5045582;28;20036;-69
2021/08/11 11:28:57;;;;;;;7.72;3.05;;;28.30;50.50;;;;;;5045391;28;20072;-69
2021/08/11 11:31:43;;;;;;;4.55;3.15;;;28.30;48.80;;;;;;5045426;28;20076;-69
2021/08/11 11:34:36;;;;;;;6.72;2.90;;;28.30;47.90;;;;;;5045348;28;20060;-69
2021/08/11 11:37:21;;;;;;;5.20;3.35;;;28.30;50.00;;;;;;5045078;28;20063;-69
2021/08/11 11:40:06;;;;;;;5.25;2.97;;;28.40;50.30;;;;;;5044910;28;20068;-70
2021/08/11 11:42:50;;;;;;;8.32;3.10;;;28.50;50.50;;;;;;5044661;28;20033;-69
2021/08/11 11:45:44;;;;;;;4.65;3.00;;;28.50;47.00;;;;;;5043857;28;20067;-69
2021/08/11 11:48:28;;;;;;;4.85;3.13;;;28.60;48.70;;;;;;5043775;28;20025;-69
2021/08/11 11:51:13;;;;;;;5.20;3.10;;;28.70;47.10;;;;;;5045229;28;20040;-70
2021/08/11 11:54:04;;;;;;;5.60;3.30;;;28.70;48.70;;;;;;5044886;28;20036;-69
2021/08/11 11:56:49;;;;;;;5.03;3.20;;;28.80;50.30;;;;;;5044819;28;20036;-70
2021/08/11 11:59:33;;;;;;;4.28;3.10;;;28.80;48.00;;;;;;5045057;28;20041;-70
2021/08/11 12:02:21;;;;;;;5.10;3.50;;;28.80;48.60;;;;;;5044955;28;20088;-70
2021/08/11 12:05:06;;;;;;;6.32;3.70;;;29.00;48.00;;;;;;5044558;28;20224;-69
2021/08/11 12:07:50;;;;;;;5.70;3.28;;;29.10;49.60;;;;;;5044682;28;20036;-70
2021/08/11 12:10:34;;;;;;;5.00;3.28;;;29.10;48.10;;;;;;5044658;28;20213;-70
2021/08/11 12:13:19;;;;;;;5.53;3.63;;;29.20;47.70;;;;;;5044663;28;20436;-69
2021/08/11 12:16:03;;;;;;;6.28;3.97;;;29.20;47.90;;;;;;5044493;28;20025;-70
2021/08/11 12:18:49;;;;;;;7.30;3.50;;;29.20;46.00;;;;;;5044202;28;20032;-69
2021/08/11 12:21:33;;;;;;;6.93;4.68;;;29.20;47.90;;;;;;5043311;28;20032;-69
2021/08/11 12:24:17;;;;;;;6.55;4.10;;;29.30;46.90;;;;;;5029516;28;20088;-69
2021/08/11 12:27:11;;;;;;;6.03;4.20;;;29.30;47.60;;;;;;5044268;28;20117;-69
2021/08/11 12:30:15;;;;;;;8.15;4.40;;;29.40;47.50;;;;;;5044177;28;20272;-69
2021/08/11 12:32:59;;;;;;;6.00;4.03;;;29.50;47.60;;;;;;5044204;28;20076;-70
2021/08/11 12:35:43;;;;;;;10.45;4.70;;;29.60;48.40;;;;;;5044002;28;20260;-70
2021/08/11 12:38:37;;;;;;;10.93;4.88;;;29.70;46.10;;;;;;5042850;28;20028;-69
2021/08/11 12:41:22;;;;;;;8.55;4.80;;;29.70;44.70;;;;;;5044423;28;20072;-70
2021/08/11 12:44:22;;;;;;;8.85;4.50;;;29.80;44.90;;;;;;5043886;28;20036;-69
2021/08/11 12:47:06;;;;;;;7.70;4.95;;;29.80;44.30;;;;;;5044236;28;20036;-69
2021/08/11 12:49:50;;;;;;;6.68;4.75;;;29.80;44.10;;;;;;5043725;28;20037;-69
2021/08/11 12:52:34;;;;;;;8.90;4.43;;;29.70;45.30;;;;;;5043588;28;20356;-69
2021/08/11 12:55:32;;;;;;;8.13;4.60;;;29.60;45.30;;;;;;5042770;28;20032;-69
2021/08/11 12:58:16;;;;;;;10.55;4.55;;;29.50;45.40;;;;;;5043577;28;20149;-69
2021/08/11 13:01:01;;;;;;;6.85;4.38;;;29.60;44.20;;;;;;5043622;28;20036;-70
2021/08/11 13:03:45;;;;;;;6.20;4.32;;;29.70;45.50;;;;;;5043618;28;20032;-69
2021/08/11 13:06:43;;;;;;;6.80;4.65;;;29.70;46.10;;;;;;5043528;28;20052;-69
2021/08/11 13:09:31;;;;;;;6.68;4.70;;;29.80;46.30;;;;;;5043507;28;20073;-69
2021/08/11 13:12:27;;;;;;;6.55;4.47;;;29.80;45.10;;;;;;5043898;28;20029;-70
2021/08/11 13:15:36;;;;;;;7.00;4.65;;;29.80;42.40;;;;;;5043602;28;20040;-69
2021/08/11 13:18:24;;;;;;;7.20;4.10;;;29.90;45.50;;;;;;5042483;28;20035;-70
2021/08/11 13:21:08;;;;;;;8.07;4.38;;;29.90;42.30;;;;;;5043884;28;20379;-70
2021/08/11 13:23:52;;;;;;;7.90;4.35;;;29.80;41.70;;;;;;5043266;28;20384;-69
2021/08/11 13:26:37;;;;;;;7.35;4.57;;;29.90;40.90;;;;;;5044169;28;20086;-69
2021/08/11 13:29:29;;;;;;;5.20;4.15;;;29.90;41.70;;;;;;5042939;28;20068;-69
2021/08/11 13:32:13;;;;;;;7.38;4.70;;;29.80;42.10;;;;;;5043374;28;20103;-69
2021/08/11 13:34:57;;;;;;;6.30;4.80;;;29.90;42.40;;;;;;5043242;28;20028;-69
2021/08/11 13:37:41;;;;;;;7.07;4.47;;;30.00;42.90;;;;;;5043223;28;20068;-69
2021/08/11 13:40:26;;;;;;;7.38;4.88;;;29.90;42.90;;;;;;5043256;28;20047;-69
2021/08/11 13:43:10;;;;;;;6.28;3.95;;;29.80;43.80;;;;;;5043141;28;20072;-69
2021/08/11 13:45:55;;;;;;;7.72;4.45;;;29.80;43.30;;;;;;5043164;28;20044;-69
2021/08/11 13:48:39;;;;;;;6.88;4.30;;;29.80;42.40;;;;;;5043156;28;20200;-69
2021/08/11 13:51:23;;;;;;;7.45;4.30;;;29.90;42.30;;;;;;5043106;28;20021;-70
2021/08/11 13:54:07;;;;;;;6.50;4.10;;;29.90;43.00;;;;;;5043534;28;20032;-70
2021/08/11 13:56:52;;;;;;;6.05;4.40;;;29.90;42.30;;;;;;5043249;28;20352;-69
2021/08/11 13:59:36;;;;;;;7.07;4.13;;;29.90;42.00;;;;;;5043654;28;20220;-69
2021/08/11 14:02:20;;;;;;;8.20;4.40;;;29.80;41.90;;;;;;5043079;28;20045;-69
2021/08/11 14:05:05;;;;;;;5.47;4.10;;;29.90;43.20;;;;;;5045080;28;20040;-69
2021/08/11 14:07:49;;;;;;;5.82;3.95;;;30.00;42.90;;;;;;5046787;28;20095;-69
2021/08/11 14:10:33;;;;;;;6.32;4.22;;;29.90;42.00;;;;;;5046700;28;20028;-69
2021/08/11 14:13:18;;;;;;;6.45;4.10;;;29.90;43.20;;;;;;5046883;28;20029;-69
2021/08/11 14:16:02;;;;;;;5.07;3.88;;;29.80;43.30;;;;;;5046661;28;20033;-69
2021/08/11 14:18:46;;;;;;;6.95;4.22;;;29.80;43.20;;;;;;5045618;28;20032;-69
2021/08/11 14:21:32;;;;;;;8.05;4.60;;;29.70;42.00;;;;;;5046494;28;20072;-69
2021/08/11 14:24:17;;;;;;;6.18;3.88;;;29.70;42.10;;;;;;5046722;28;20083;-69